Aviation Digital Data Service (ADDS)

Output produced by METARs form (1140 UTC 18 September 2014)
found at http://www.aviationweather.gov/adds/metars/
 
METAR text: KSBP 181056Z AUTO 13003KT 10SM OVC013 17/13 A2985 RMK AO2 SLP104 T01720128
Conditions at: KSBP (SAN LUIS OBISPO , CA, US) observed 1056 UTC 18 September 2014
Temperature: 17.2°C (63°F)
Dewpoint: 12.8°C (55°F) [RH = 75%]
Pressure (altimeter): 29.85 inches Hg (1010.9 mb)
[Sea-level pressure: 1010.4 mb]
Winds: from the SE (130 degrees) at 3 MPH (3 knots; 1.6 m/s)
Visibility: 10 or more miles (16+ km)
Ceiling: 1300 feet AGL
Clouds: overcast cloud deck at 1300 feet AGL
Weather: automated observation with no human augmentation;
there may or may not be significant weather present at this time

METAR text: KSBP 180956Z AUTO 00000KT 10SM OVC013 17/13 A2985 RMK AO2 SLP103 T01720128
Conditions at: KSBP (SAN LUIS OBISPO , CA, US) observed 0956 UTC 18 September 2014
Temperature: 17.2°C (63°F)
Dewpoint: 12.8°C (55°F) [RH = 75%]
Pressure (altimeter): 29.85 inches Hg (1010.9 mb)
[Sea-level pressure: 1010.3 mb]
Winds: calm
Visibility: 10 or more miles (16+ km)
Ceiling: 1300 feet AGL
Clouds: overcast cloud deck at 1300 feet AGL
Weather: automated observation with no human augmentation;
there may or may not be significant weather present at this time

METAR text: KSBP 180941Z AUTO 00000KT 10SM OVC014 17/13 A2984 RMK AO2 T01670128
Conditions at: KSBP (SAN LUIS OBISPO , CA, US) observed 0941 UTC 18 September 2014
Temperature: 16.7°C (62°F)
Dewpoint: 12.8°C (55°F) [RH = 78%]
Pressure (altimeter): 29.84 inches Hg (1010.6 mb)
Winds: calm
Visibility: 10 or more miles (16+ km)
Ceiling: 1400 feet AGL
Clouds: overcast cloud deck at 1400 feet AGL
Weather: automated observation with no human augmentation;
there may or may not be significant weather present at this time

METAR text: KSBP 180856Z AUTO 13003KT 10SM OVC016 16/13 A2985 RMK AO2 SLP105 T01610128 58002
Conditions at: KSBP (SAN LUIS OBISPO , CA, US) observed 0856 UTC 18 September 2014
Temperature: 16.1°C (61°F)
Dewpoint: 12.8°C (55°F) [RH = 81%]
Pressure (altimeter): 29.85 inches Hg (1010.9 mb)
[Sea-level pressure: 1010.5 mb]
Winds: from the SE (130 degrees) at 3 MPH (3 knots; 1.6 m/s)
Visibility: 10 or more miles (16+ km)
Ceiling: 1600 feet AGL
Clouds: overcast cloud deck at 1600 feet AGL
Weather: automated observation with no human augmentation;
there may or may not be significant weather present at this time

METAR text: KSBP 180824Z AUTO 11004KT 10SM BKN016 16/13 A2985 RMK AO2 T01610128
Conditions at: KSBP (SAN LUIS OBISPO , CA, US) observed 0824 UTC 18 September 2014
Temperature: 16.1°C (61°F)
Dewpoint: 12.8°C (55°F) [RH = 81%]
Pressure (altimeter): 29.85 inches Hg (1010.9 mb)
Winds: from the ESE (110 degrees) at 5 MPH (4 knots; 2.1 m/s)
Visibility: 10 or more miles (16+ km)
Ceiling: 1600 feet AGL
Clouds: broken clouds at 1600 feet AGL
Weather: automated observation with no human augmentation;
there may or may not be significant weather present at this time

METAR text: KSBP 180756Z AUTO 00000KT 10SM CLR 16/13 A2985 RMK AO2 SLP106 T01610128 402780117
Conditions at: KSBP (SAN LUIS OBISPO , CA, US) observed 0756 UTC 18 September 2014
Temperature: 16.1°C (61°F)
Dewpoint: 12.8°C (55°F) [RH = 81%]
Pressure (altimeter): 29.85 inches Hg (1010.9 mb)
[Sea-level pressure: 1010.6 mb]
Winds: calm
Visibility: 10 or more miles (16+ km)
Ceiling: at least 12,000 feet AGL
Clouds: sky clear below 12,000 feet AGL
Weather: automated observation with no human augmentation;
there may or may not be significant weather present at this time

METAR text: KSBP 180656Z AUTO 00000KT 10SM CLR 16/13 A2985 RMK AO2 SLP107 T01610128
Conditions at: KSBP (SAN LUIS OBISPO , CA, US) observed 0656 UTC 18 September 2014
Temperature: 16.1°C (61°F)
Dewpoint: 12.8°C (55°F) [RH = 81%]
Pressure (altimeter): 29.85 inches Hg (1010.9 mb)
[Sea-level pressure: 1010.7 mb]
Winds: calm
Visibility: 10 or more miles (16+ km)
Ceiling: at least 12,000 feet AGL
Clouds: sky clear below 12,000 feet AGL
Weather: automated observation with no human augmentation;
there may or may not be significant weather present at this time

METAR text: KSBP 180556Z AUTO 00000KT 10SM CLR 17/13 A2985 RMK AO2 SLP107 T01670133 10228 20167 51008
Conditions at: KSBP (SAN LUIS OBISPO , CA, US) observed 0556 UTC 18 September 2014
Temperature: 16.7°C (62°F)
Dewpoint: 13.3°C (56°F) [RH = 80%]
Pressure (altimeter): 29.85 inches Hg (1010.9 mb)
[Sea-level pressure: 1010.7 mb]
Winds: calm
Visibility: 10 or more miles (16+ km)
Ceiling: at least 12,000 feet AGL
Clouds: sky clear below 12,000 feet AGL
Weather: automated observation with no human augmentation;
there may or may not be significant weather present at this time

METAR text: KSBP 180456Z AUTO 00000KT 10SM CLR 17/14 A2985 RMK AO2 SLP107 T01720139
Conditions at: KSBP (SAN LUIS OBISPO , CA, US) observed 0456 UTC 18 September 2014
Temperature: 17.2°C (63°F)
Dewpoint: 13.9°C (57°F) [RH = 81%]
Pressure (altimeter): 29.85 inches Hg (1010.9 mb)
[Sea-level pressure: 1010.7 mb]
Winds: calm
Visibility: 10 or more miles (16+ km)
Ceiling: at least 12,000 feet AGL
Clouds: sky clear below 12,000 feet AGL
Weather: automated observation with no human augmentation;
there may or may not be significant weather present at this time

METAR text: KSBP 180356Z AUTO 28005KT 10SM CLR 18/14 A2984 RMK AO2 SLP103 T01830144
Conditions at: KSBP (SAN LUIS OBISPO , CA, US) observed 0356 UTC 18 September 2014
Temperature: 18.3°C (65°F)
Dewpoint: 14.4°C (58°F) [RH = 78%]
Pressure (altimeter): 29.84 inches Hg (1010.6 mb)
[Sea-level pressure: 1010.3 mb]
Winds: from the W (280 degrees) at 6 MPH (5 knots; 2.6 m/s)
Visibility: 10 or more miles (16+ km)
Ceiling: at least 12,000 feet AGL
Clouds: sky clear below 12,000 feet AGL
Weather: automated observation with no human augmentation;
there may or may not be significant weather present at this time